sensor_id;sensor_type;location;lat;lon;timestamp;P1;P2;P0
47810;PMS5003;33575;52.600;7.318;2023-04-15T00:00:21;17;16;
47810;PMS5003;33575;52.600;7.318;2023-04-15T00:02:52;17;17;
47810;PMS5003;33575;52.600;7.318;2023-04-15T00:05:22;15;14;
47810;PMS5003;33575;52.600;7.318;2023-04-15T00:07:53;14;13;
47810;PMS5003;33575;52.600;7.318;2023-04-15T00:10:23;14;14;
47810;PMS5003;33575;52.600;7.318;2023-04-15T00:12:54;16;14;
47810;PMS5003;33575;52.600;7.318;2023-04-15T00:15:25;14;14;
47810;PMS5003;33575;52.600;7.318;2023-04-15T00:17:55;16;16;
47810;PMS5003;33575;52.600;7.318;2023-04-15T00:20:26;16;14;
47810;PMS5003;33575;52.600;7.318;2023-04-15T00:22:57;19;17;
47810;PMS5003;33575;52.600;7.318;2023-04-15T00:25:28;14;14;
47810;PMS5003;33575;52.600;7.318;2023-04-15T00:27:58;14;12;
47810;PMS5003;33575;52.600;7.318;2023-04-15T00:30:29;17;16;
47810;PMS5003;33575;52.600;7.318;2023-04-15T00:33:00;14;14;
47810;PMS5003;33575;52.600;7.318;2023-04-15T00:35:30;14;14;
47810;PMS5003;33575;52.600;7.318;2023-04-15T00:38:00;15;15;
47810;PMS5003;33575;52.600;7.318;2023-04-15T00:40:31;17;14;
47810;PMS5003;33575;52.600;7.318;2023-04-15T00:43:02;16;16;
47810;PMS5003;33575;52.600;7.318;2023-04-15T00:45:32;15;15;
47810;PMS5003;33575;52.600;7.318;2023-04-15T00:48:03;18;17;
47810;PMS5003;33575;52.600;7.318;2023-04-15T00:50:33;15;14;
47810;PMS5003;33575;52.600;7.318;2023-04-15T00:53:04;18;16;
47810;PMS5003;33575;52.600;7.318;2023-04-15T00:55:34;16;15;
47810;PMS5003;33575;52.600;7.318;2023-04-15T00:58:05;17;16;
47810;PMS5003;33575;52.600;7.318;2023-04-15T01:00:35;21;19;
47810;PMS5003;33575;52.600;7.318;2023-04-15T01:03:06;18;18;
47810;PMS5003;33575;52.600;7.318;2023-04-15T01:05:37;20;18;
47810;PMS5003;33575;52.600;7.318;2023-04-15T01:08:07;19;18;
47810;PMS5003;33575;52.600;7.318;2023-04-15T01:10:38;21;20;
47810;PMS5003;33575;52.600;7.318;2023-04-15T01:13:09;22;21;
47810;PMS5003;33575;52.600;7.318;2023-04-15T01:15:39;22;22;
47810;PMS5003;33575;52.600;7.318;2023-04-15T01:18:09;25;22;
47810;PMS5003;33575;52.600;7.318;2023-04-15T01:20:40;22;21;
47810;PMS5003;33575;52.600;7.318;2023-04-15T01:23:11;19;18;
47810;PMS5003;33575;52.600;7.318;2023-04-15T01:25:41;19;18;
47810;PMS5003;33575;52.600;7.318;2023-04-15T01:28:12;19;19;
47810;PMS5003;33575;52.600;7.318;2023-04-15T01:30:42;24;21;
47810;PMS5003;33575;52.600;7.318;2023-04-15T01:33:13;22;20;
47810;PMS5003;33575;52.600;7.318;2023-04-15T01:35:43;19;18;
47810;PMS5003;33575;52.600;7.318;2023-04-15T01:38:14;22;21;
47810;PMS5003;33575;52.600;7.318;2023-04-15T01:40:44;26;24;
47810;PMS5003;33575;52.600;7.318;2023-04-15T01:43:15;21;20;
47810;PMS5003;33575;52.600;7.318;2023-04-15T01:45:45;22;21;
47810;PMS5003;33575;52.600;7.318;2023-04-15T01:48:16;22;22;
47810;PMS5003;33575;52.600;7.318;2023-04-15T01:50:46;27;24;
47810;PMS5003;33575;52.600;7.318;2023-04-15T01:53:17;22;21;
47810;PMS5003;33575;52.600;7.318;2023-04-15T01:55:47;21;20;
47810;PMS5003;33575;52.600;7.318;2023-04-15T01:58:18;23;22;
47810;PMS5003;33575;52.600;7.318;2023-04-15T02:00:48;24;23;
47810;PMS5003;33575;52.600;7.318;2023-04-15T02:03:19;23;23;
47810;PMS5003;33575;52.600;7.318;2023-04-15T02:05:49;26;23;
47810;PMS5003;33575;52.600;7.318;2023-04-15T02:08:20;23;21;
47810;PMS5003;33575;52.600;7.318;2023-04-15T02:10:50;30;25;
47810;PMS5003;33575;52.600;7.318;2023-04-15T02:13:21;24;24;
47810;PMS5003;33575;52.600;7.318;2023-04-15T02:15:51;24;24;
47810;PMS5003;33575;52.600;7.318;2023-04-15T02:18:21;20;19;
47810;PMS5003;33575;52.600;7.318;2023-04-15T02:20:52;21;21;
47810;PMS5003;33575;52.600;7.318;2023-04-15T02:23:22;21;19;
47810;PMS5003;33575;52.600;7.318;2023-04-15T02:25:54;24;23;
47810;PMS5003;33575;52.600;7.318;2023-04-15T02:28:24;25;24;
47810;PMS5003;33575;52.600;7.318;2023-04-15T02:30:54;25;23;
47810;PMS5003;33575;52.600;7.318;2023-04-15T02:33:24;27;26;
47810;PMS5003;33575;52.600;7.318;2023-04-15T02:35:55;29;29;
47810;PMS5003;33575;52.600;7.318;2023-04-15T02:38:25;28;26;
47810;PMS5003;33575;52.600;7.318;2023-04-15T02:40:56;31;28;
47810;PMS5003;33575;52.600;7.318;2023-04-15T02:43:27;34;33;
47810;PMS5003;33575;52.600;7.318;2023-04-15T02:45:57;26;25;
47810;PMS5003;33575;52.600;7.318;2023-04-15T02:48:28;26;26;
47810;PMS5003;33575;52.600;7.318;2023-04-15T02:53:29;25;24;
47810;PMS5003;33575;52.600;7.318;2023-04-15T02:55:59;23;22;
47810;PMS5003;33575;52.600;7.318;2023-04-15T02:58:29;26;25;
47810;PMS5003;33575;52.600;7.318;2023-04-15T03:00:59;25;24;
47810;PMS5003;33575;52.600;7.318;2023-04-15T03:03:30;26;26;
47810;PMS5003;33575;52.600;7.318;2023-04-15T03:06:01;27;26;
47810;PMS5003;33575;52.600;7.318;2023-04-15T03:08:31;25;23;
47810;PMS5003;33575;52.600;7.318;2023-04-15T03:11:02;24;24;
47810;PMS5003;33575;52.600;7.318;2023-04-15T03:13:32;22;22;
47810;PMS5003;33575;52.600;7.318;2023-04-15T03:16:03;23;22;
47810;PMS5003;33575;52.600;7.318;2023-04-15T03:18:33;27;26;
47810;PMS5003;33575;52.600;7.318;2023-04-15T03:21:04;29;27;
47810;PMS5003;33575;52.600;7.318;2023-04-15T03:23:35;32;31;
47810;PMS5003;33575;52.600;7.318;2023-04-15T03:26:05;36;33;
47810;PMS5003;33575;52.600;7.318;2023-04-15T03:28:36;33;33;
47810;PMS5003;33575;52.600;7.318;2023-04-15T03:31:06;28;28;
47810;PMS5003;33575;52.600;7.318;2023-04-15T03:33:36;30;28;
47810;PMS5003;33575;52.600;7.318;2023-04-15T03:36:07;28;27;
47810;PMS5003;33575;52.600;7.318;2023-04-15T03:38:37;26;25;
47810;PMS5003;33575;52.600;7.318;2023-04-15T03:41:08;32;30;
47810;PMS5003;33575;52.600;7.318;2023-04-15T03:43:38;39;34;
47810;PMS5003;33575;52.600;7.318;2023-04-15T03:46:08;30;28;
47810;PMS5003;33575;52.600;7.318;2023-04-15T03:48:38;37;36;
47810;PMS5003;33575;52.600;7.318;2023-04-15T03:51:08;32;30;
47810;PMS5003;33575;52.600;7.318;2023-04-15T03:53:39;28;28;
47810;PMS5003;33575;52.600;7.318;2023-04-15T03:56:09;28;28;
47810;PMS5003;33575;52.600;7.318;2023-04-15T03:58:40;29;29;
47810;PMS5003;33575;52.600;7.318;2023-04-15T04:01:10;35;32;
47810;PMS5003;33575;52.600;7.318;2023-04-15T04:03:41;28;26;
47810;PMS5003;33575;52.600;7.318;2023-04-15T04:06:11;31;30;
47810;PMS5003;33575;52.600;7.318;2023-04-15T04:08:41;31;31;
47810;PMS5003;33575;52.600;7.318;2023-04-15T04:11:12;35;33;
47810;PMS5003;33575;52.600;7.318;2023-04-15T04:13:43;29;29;
47810;PMS5003;33575;52.600;7.318;2023-04-15T04:16:14;34;32;
47810;PMS5003;33575;52.600;7.318;2023-04-15T04:18:44;35;33;
47810;PMS5003;33575;52.600;7.318;2023-04-15T04:21:14;32;32;
47810;PMS5003;33575;52.600;7.318;2023-04-15T04:23:45;36;35;
47810;PMS5003;33575;52.600;7.318;2023-04-15T04:26:16;37;35;
47810;PMS5003;33575;52.600;7.318;2023-04-15T04:28:46;35;32;
47810;PMS5003;33575;52.600;7.318;2023-04-15T04:31:17;39;35;
47810;PMS5003;33575;52.600;7.318;2023-04-15T04:33:47;34;32;
47810;PMS5003;33575;52.600;7.318;2023-04-15T04:36:18;39;37;
47810;PMS5003;33575;52.600;7.318;2023-04-15T04:38:49;38;35;
47810;PMS5003;33575;52.600;7.318;2023-04-15T04:41:20;34;34;
47810;PMS5003;33575;52.600;7.318;2023-04-15T04:43:50;40;38;
47810;PMS5003;33575;52.600;7.318;2023-04-15T04:46:21;44;44;
47810;PMS5003;33575;52.600;7.318;2023-04-15T04:48:51;39;37;
47810;PMS5003;33575;52.600;7.318;2023-04-15T04:51:21;39;38;
47810;PMS5003;33575;52.600;7.318;2023-04-15T04:53:52;34;32;
47810;PMS5003;33575;52.600;7.318;2023-04-15T04:56:23;39;37;
47810;PMS5003;33575;52.600;7.318;2023-04-15T04:58:53;43;39;
47810;PMS5003;33575;52.600;7.318;2023-04-15T05:01:24;35;34;
47810;PMS5003;33575;52.600;7.318;2023-04-15T05:03:54;38;36;
47810;PMS5003;33575;52.600;7.318;2023-04-15T05:06:25;39;36;
47810;PMS5003;33575;52.600;7.318;2023-04-15T05:08:55;36;32;
47810;PMS5003;33575;52.600;7.318;2023-04-15T05:11:26;36;34;
47810;PMS5003;33575;52.600;7.318;2023-04-15T05:13:56;34;34;
47810;PMS5003;33575;52.600;7.318;2023-04-15T05:16:26;33;30;
47810;PMS5003;33575;52.600;7.318;2023-04-15T05:18:57;35;32;
47810;PMS5003;33575;52.600;7.318;2023-04-15T05:21:27;37;33;
47810;PMS5003;33575;52.600;7.318;2023-04-15T05:23:57;36;36;
47810;PMS5003;33575;52.600;7.318;2023-04-15T05:26:28;30;29;
47810;PMS5003;33575;52.600;7.318;2023-04-15T05:28:59;33;32;
47810;PMS5003;33575;52.600;7.318;2023-04-15T05:31:29;38;36;
47810;PMS5003;33575;52.600;7.318;2023-04-15T05:33:59;35;32;
47810;PMS5003;33575;52.600;7.318;2023-04-15T05:36:29;36;33;
47810;PMS5003;33575;52.600;7.318;2023-04-15T05:39:01;39;37;
47810;PMS5003;33575;52.600;7.318;2023-04-15T05:41:31;34;33;
47810;PMS5003;33575;52.600;7.318;2023-04-15T05:44:01;39;33;
47810;PMS5003;33575;52.600;7.318;2023-04-15T05:46:32;34;30;
47810;PMS5003;33575;52.600;7.318;2023-04-15T05:49:02;35;35;
47810;PMS5003;33575;52.600;7.318;2023-04-15T05:51:33;38;35;
47810;PMS5003;33575;52.600;7.318;2023-04-15T05:54:03;32;31;
47810;PMS5003;33575;52.600;7.318;2023-04-15T05:56:34;35;31;
47810;PMS5003;33575;52.600;7.318;2023-04-15T05:59:04;37;35;
47810;PMS5003;33575;52.600;7.318;2023-04-15T06:01:34;40;38;
47810;PMS5003;33575;52.600;7.318;2023-04-15T06:04:05;36;33;
47810;PMS5003;33575;52.600;7.318;2023-04-15T06:06:35;33;30;
47810;PMS5003;33575;52.600;7.318;2023-04-15T06:09:06;39;37;
47810;PMS5003;33575;52.600;7.318;2023-04-15T06:11:36;40;36;
47810;PMS5003;33575;52.600;7.318;2023-04-15T06:14:07;34;32;
47810;PMS5003;33575;52.600;7.318;2023-04-15T06:16:37;37;35;
47810;PMS5003;33575;52.600;7.318;2023-04-15T06:19:07;38;35;
47810;PMS5003;33575;52.600;7.318;2023-04-15T06:21:38;46;42;
47810;PMS5003;33575;52.600;7.318;2023-04-15T06:24:09;61;57;
47810;PMS5003;33575;52.600;7.318;2023-04-15T06:26:39;48;46;
47810;PMS5003;33575;52.600;7.318;2023-04-15T06:29:10;54;47;
47810;PMS5003;33575;52.600;7.318;2023-04-15T06:31:40;50;44;
47810;PMS5003;33575;52.600;7.318;2023-04-15T06:34:10;47;46;
47810;PMS5003;33575;52.600;7.318;2023-04-15T06:36:41;31;30;
47810;PMS5003;33575;52.600;7.318;2023-04-15T06:39:11;44;43;
47810;PMS5003;33575;52.600;7.318;2023-04-15T06:41:42;44;39;
47810;PMS5003;33575;52.600;7.318;2023-04-15T06:44:12;44;39;
47810;PMS5003;33575;52.600;7.318;2023-04-15T06:46:43;36;35;
47810;PMS5003;33575;52.600;7.318;2023-04-15T06:49:14;29;28;
47810;PMS5003;33575;52.600;7.318;2023-04-15T06:51:44;30;26;
47810;PMS5003;33575;52.600;7.318;2023-04-15T06:54:14;40;38;
47810;PMS5003;33575;52.600;7.318;2023-04-15T06:56:45;32;32;
47810;PMS5003;33575;52.600;7.318;2023-04-15T06:59:15;38;35;
47810;PMS5003;33575;52.600;7.318;2023-04-15T07:01:45;40;38;
47810;PMS5003;33575;52.600;7.318;2023-04-15T07:04:16;33;31;
47810;PMS5003;33575;52.600;7.318;2023-04-15T07:06:46;31;29;
47810;PMS5003;33575;52.600;7.318;2023-04-15T07:09:17;32;31;
47810;PMS5003;33575;52.600;7.318;2023-04-15T07:11:47;29;29;
47810;PMS5003;33575;52.600;7.318;2023-04-15T07:14:18;33;32;
47810;PMS5003;33575;52.600;7.318;2023-04-15T07:16:48;34;31;
47810;PMS5003;33575;52.600;7.318;2023-04-15T07:19:19;35;33;
47810;PMS5003;33575;52.600;7.318;2023-04-15T07:21:49;44;42;
47810;PMS5003;33575;52.600;7.318;2023-04-15T07:24:20;42;37;
47810;PMS5003;33575;52.600;7.318;2023-04-15T07:26:50;34;30;
47810;PMS5003;33575;52.600;7.318;2023-04-15T07:29:21;25;23;
47810;PMS5003;33575;52.600;7.318;2023-04-15T07:31:51;39;35;
47810;PMS5003;33575;52.600;7.318;2023-04-15T07:34:21;34;31;
47810;PMS5003;33575;52.600;7.318;2023-04-15T07:36:52;42;40;
47810;PMS5003;33575;52.600;7.318;2023-04-15T07:39:23;26;24;
47810;PMS5003;33575;52.600;7.318;2023-04-15T07:41:53;28;25;
47810;PMS5003;33575;52.600;7.318;2023-04-15T07:44:24;40;38;
47810;PMS5003;33575;52.600;7.318;2023-04-15T07:46:54;33;29;
47810;PMS5003;33575;52.600;7.318;2023-04-15T07:49:24;22;22;
47810;PMS5003;33575;52.600;7.318;2023-04-15T07:51:54;24;23;
47810;PMS5003;33575;52.600;7.318;2023-04-15T07:54:25;31;23;
47810;PMS5003;33575;52.600;7.318;2023-04-15T07:56:55;24;22;
47810;PMS5003;33575;52.600;7.318;2023-04-15T07:59:26;22;19;
47810;PMS5003;33575;52.600;7.318;2023-04-15T08:01:56;27;26;
47810;PMS5003;33575;52.600;7.318;2023-04-15T08:04:27;20;20;
47810;PMS5003;33575;52.600;7.318;2023-04-15T08:06:57;20;20;
47810;PMS5003;33575;52.600;7.318;2023-04-15T08:09:27;21;21;
47810;PMS5003;33575;52.600;7.318;2023-04-15T08:11:57;26;23;
47810;PMS5003;33575;52.600;7.318;2023-04-15T08:14:28;17;16;
47810;PMS5003;33575;52.600;7.318;2023-04-15T08:16:58;20;20;
47810;PMS5003;33575;52.600;7.318;2023-04-15T08:19:29;19;18;
47810;PMS5003;33575;52.600;7.318;2023-04-15T08:21:59;25;22;
47810;PMS5003;33575;52.600;7.318;2023-04-15T08:24:30;33;29;
47810;PMS5003;33575;52.600;7.318;2023-04-15T08:27:00;21;21;
47810;PMS5003;33575;52.600;7.318;2023-04-15T08:29:30;23;22;
47810;PMS5003;33575;52.600;7.318;2023-04-15T08:32:01;22;21;
47810;PMS5003;33575;52.600;7.318;2023-04-15T08:34:31;22;22;
47810;PMS5003;33575;52.600;7.318;2023-04-15T08:37:01;24;23;
47810;PMS5003;33575;52.600;7.318;2023-04-15T08:39:31;26;25;
47810;PMS5003;33575;52.600;7.318;2023-04-15T08:42:02;19;18;
47810;PMS5003;33575;52.600;7.318;2023-04-15T08:44:33;27;26;
47810;PMS5003;33575;52.600;7.318;2023-04-15T08:47:03;18;18;
47810;PMS5003;33575;52.600;7.318;2023-04-15T08:49:33;26;25;
47810;PMS5003;33575;52.600;7.318;2023-04-15T08:52:03;15;14;
47810;PMS5003;33575;52.600;7.318;2023-04-15T08:54:33;17;15;
47810;PMS5003;33575;52.600;7.318;2023-04-15T08:57:04;27;26;
47810;PMS5003;33575;52.600;7.318;2023-04-15T08:59:35;26;25;
47810;PMS5003;33575;52.600;7.318;2023-04-15T09:02:05;17;16;
47810;PMS5003;33575;52.600;7.318;2023-04-15T09:04:35;18;16;
47810;PMS5003;33575;52.600;7.318;2023-04-15T09:07:06;15;15;
47810;PMS5003;33575;52.600;7.318;2023-04-15T09:09:36;14;14;
47810;PMS5003;33575;52.600;7.318;2023-04-15T09:12:07;18;16;
47810;PMS5003;33575;52.600;7.318;2023-04-15T09:14:38;13;13;
47810;PMS5003;33575;52.600;7.318;2023-04-15T09:17:09;16;16;
47810;PMS5003;33575;52.600;7.318;2023-04-15T09:19:38;17;15;
47810;PMS5003;33575;52.600;7.318;2023-04-15T09:22:08;10;10;
47810;PMS5003;33575;52.600;7.318;2023-04-15T09:24:39;12;12;
47810;PMS5003;33575;52.600;7.318;2023-04-15T09:27:10;15;14;
47810;PMS5003;33575;52.600;7.318;2023-04-15T09:29:40;16;15;
47810;PMS5003;33575;52.600;7.318;2023-04-15T09:32:11;21;20;
47810;PMS5003;33575;52.600;7.318;2023-04-15T09:34:41;14;13;
47810;PMS5003;33575;52.600;7.318;2023-04-15T09:37:11;17;16;
47810;PMS5003;33575;52.600;7.318;2023-04-15T09:39:46;16;14;
47810;PMS5003;33575;52.600;7.318;2023-04-15T09:42:13;12;12;
47810;PMS5003;33575;52.600;7.318;2023-04-15T09:44:43;15;13;
47810;PMS5003;33575;52.600;7.318;2023-04-15T09:52:15;12;11;
47810;PMS5003;33575;52.600;7.318;2023-04-15T09:54:46;11;9;
47810;PMS5003;33575;52.600;7.318;2023-04-15T09:57:16;15;11;
47810;PMS5003;33575;52.600;7.318;2023-04-15T09:59:47;12;10;
47810;PMS5003;33575;52.600;7.318;2023-04-15T10:02:18;10;10;
47810;PMS5003;33575;52.600;7.318;2023-04-15T10:04:48;10;9;
47810;PMS5003;33575;52.600;7.318;2023-04-15T10:07:19;12;10;
47810;PMS5003;33575;52.600;7.318;2023-04-15T10:09:50;14;13;
47810;PMS5003;33575;52.600;7.318;2023-04-15T10:12:21;19;18;
47810;PMS5003;33575;52.600;7.318;2023-04-15T10:14:52;10;9;
47810;PMS5003;33575;52.600;7.318;2023-04-15T10:17:21;14;14;
47810;PMS5003;33575;52.600;7.318;2023-04-15T10:19:52;10;10;
47810;PMS5003;33575;52.600;7.318;2023-04-15T10:22:22;10;9;
47810;PMS5003;33575;52.600;7.318;2023-04-15T10:24:53;12;12;
47810;PMS5003;33575;52.600;7.318;2023-04-15T10:27:25;8;8;
47810;PMS5003;33575;52.600;7.318;2023-04-15T10:29:54;10;10;
47810;PMS5003;33575;52.600;7.318;2023-04-15T10:32:25;9;9;
47810;PMS5003;33575;52.600;7.318;2023-04-15T10:34:55;13;13;
47810;PMS5003;33575;52.600;7.318;2023-04-15T10:39:57;9;9;
47810;PMS5003;33575;52.600;7.318;2023-04-15T10:42:32;9;8;
47810;PMS5003;33575;52.600;7.318;2023-04-15T10:44:58;10;8;
47810;PMS5003;33575;52.600;7.318;2023-04-15T10:47:29;10;10;
47810;PMS5003;33575;52.600;7.318;2023-04-15T10:50:00;9;9;
47810;PMS5003;33575;52.600;7.318;2023-04-15T10:52:30;14;10;
47810;PMS5003;33575;52.600;7.318;2023-04-15T10:55:01;10;9;
47810;PMS5003;33575;52.600;7.318;2023-04-15T10:57:33;8;8;
47810;PMS5003;33575;52.600;7.318;2023-04-15T11:02:37;11;10;
47810;PMS5003;33575;52.600;7.318;2023-04-15T11:05:03;12;11;
47810;PMS5003;33575;52.600;7.318;2023-04-15T11:07:35;12;11;
47810;PMS5003;33575;52.600;7.318;2023-04-15T11:12:35;11;10;
47810;PMS5003;33575;52.600;7.318;2023-04-15T11:17:36;10;9;
47810;PMS5003;33575;52.600;7.318;2023-04-15T11:20:07;10;10;
47810;PMS5003;33575;52.600;7.318;2023-04-15T11:22:37;12;8;
47810;PMS5003;33575;52.600;7.318;2023-04-15T11:25:08;10;10;
47810;PMS5003;33575;52.600;7.318;2023-04-15T11:27:39;8;8;
47810;PMS5003;33575;52.600;7.318;2023-04-15T11:32:40;11;11;
47810;PMS5003;33575;52.600;7.318;2023-04-15T11:35:10;12;10;
47810;PMS5003;33575;52.600;7.318;2023-04-15T11:37:41;8;8;
47810;PMS5003;33575;52.600;7.318;2023-04-15T11:40:11;8;8;
47810;PMS5003;33575;52.600;7.318;2023-04-15T11:42:48;8;7;
47810;PMS5003;33575;52.600;7.318;2023-04-15T11:45:14;12;10;
47810;PMS5003;33575;52.600;7.318;2023-04-15T11:47:43;10;9;
47810;PMS5003;33575;52.600;7.318;2023-04-15T11:50:14;11;10;
47810;PMS5003;33575;52.600;7.318;2023-04-15T11:55:15;10;8;
47810;PMS5003;33575;52.600;7.318;2023-04-15T11:57:46;11;11;
47810;PMS5003;33575;52.600;7.318;2023-04-15T12:00:16;8;8;
47810;PMS5003;33575;52.600;7.318;2023-04-15T12:02:47;9;9;
47810;PMS5003;33575;52.600;7.318;2023-04-15T12:05:18;10;9;
47810;PMS5003;33575;52.600;7.318;2023-04-15T12:10:19;8;8;
47810;PMS5003;33575;52.600;7.318;2023-04-15T12:12:50;12;12;
47810;PMS5003;33575;52.600;7.318;2023-04-15T12:15:20;11;10;
47810;PMS5003;33575;52.600;7.318;2023-04-15T12:17:52;11;10;
47810;PMS5003;33575;52.600;7.318;2023-04-15T12:20:24;8;8;
47810;PMS5003;33575;52.600;7.318;2023-04-15T12:22:52;10;10;
47810;PMS5003;33575;52.600;7.318;2023-04-15T12:27:53;7;7;
47810;PMS5003;33575;52.600;7.318;2023-04-15T12:30:24;9;9;
47810;PMS5003;33575;52.600;7.318;2023-04-15T12:32:56;9;9;
47810;PMS5003;33575;52.600;7.318;2023-04-15T12:35:25;8;8;
47810;PMS5003;33575;52.600;7.318;2023-04-15T12:37:56;8;8;
47810;PMS5003;33575;52.600;7.318;2023-04-15T12:40:27;10;8;
47810;PMS5003;33575;52.600;7.318;2023-04-15T12:42:57;9;9;
47810;PMS5003;33575;52.600;7.318;2023-04-15T12:45:30;12;10;
47810;PMS5003;33575;52.600;7.318;2023-04-15T12:47:59;9;8;
47810;PMS5003;33575;52.600;7.318;2023-04-15T12:50:29;8;8;
47810;PMS5003;33575;52.600;7.318;2023-04-15T12:53:00;7;7;
47810;PMS5003;33575;52.600;7.318;2023-04-15T12:55:30;8;7;
47810;PMS5003;33575;52.600;7.318;2023-04-15T12:58:01;9;9;
47810;PMS5003;33575;52.600;7.318;2023-04-15T13:00:32;7;7;
47810;PMS5003;33575;52.600;7.318;2023-04-15T13:03:07;6;6;
47810;PMS5003;33575;52.600;7.318;2023-04-15T13:05:33;6;6;
47810;PMS5003;33575;52.600;7.318;2023-04-15T13:08:04;8;7;
47810;PMS5003;33575;52.600;7.318;2023-04-15T13:10:34;5;5;
47810;PMS5003;33575;52.600;7.318;2023-04-15T13:13:05;6;6;
47810;PMS5003;33575;52.600;7.318;2023-04-15T13:15:36;7;5;
47810;PMS5003;33575;52.600;7.318;2023-04-15T13:18:06;6;5;
47810;PMS5003;33575;52.600;7.318;2023-04-15T13:20:37;7;7;
47810;PMS5003;33575;52.600;7.318;2023-04-15T13:23:07;4;4;
47810;PMS5003;33575;52.600;7.318;2023-04-15T13:25:38;9;9;
47810;PMS5003;33575;52.600;7.318;2023-04-15T13:28:09;7;6;
47810;PMS5003;33575;52.600;7.318;2023-04-15T13:30:39;6;6;
47810;PMS5003;33575;52.600;7.318;2023-04-15T13:33:10;7;7;
47810;PMS5003;33575;52.600;7.318;2023-04-15T13:35:41;6;6;
47810;PMS5003;33575;52.600;7.318;2023-04-15T13:38:11;6;6;
47810;PMS5003;33575;52.600;7.318;2023-04-15T13:40:42;6;6;
47810;PMS5003;33575;52.600;7.318;2023-04-15T13:43:13;7;6;
47810;PMS5003;33575;52.600;7.318;2023-04-15T13:45:45;5;5;
47810;PMS5003;33575;52.600;7.318;2023-04-15T13:48:14;8;6;
47810;PMS5003;33575;52.600;7.318;2023-04-15T13:50:45;6;6;
47810;PMS5003;33575;52.600;7.318;2023-04-15T13:53:15;5;5;
47810;PMS5003;33575;52.600;7.318;2023-04-15T13:55:46;6;6;
47810;PMS5003;33575;52.600;7.318;2023-04-15T13:58:17;5;5;
47810;PMS5003;33575;52.600;7.318;2023-04-15T14:00:47;13;11;
47810;PMS5003;33575;52.600;7.318;2023-04-15T14:03:18;7;7;
47810;PMS5003;33575;52.600;7.318;2023-04-15T14:05:49;6;6;
47810;PMS5003;33575;52.600;7.318;2023-04-15T14:08:19;5;5;
47810;PMS5003;33575;52.600;7.318;2023-04-15T14:10:50;6;6;
47810;PMS5003;33575;52.600;7.318;2023-04-15T14:13:20;9;8;
47810;PMS5003;33575;52.600;7.318;2023-04-15T14:15:51;7;7;
47810;PMS5003;33575;52.600;7.318;2023-04-15T14:18:22;7;7;
47810;PMS5003;33575;52.600;7.318;2023-04-15T14:20:52;8;7;
47810;PMS5003;33575;52.600;7.318;2023-04-15T14:23:23;6;6;
47810;PMS5003;33575;52.600;7.318;2023-04-15T14:25:54;8;7;
47810;PMS5003;33575;52.600;7.318;2023-04-15T14:28:25;9;9;
47810;PMS5003;33575;52.600;7.318;2023-04-15T14:30:55;9;8;
47810;PMS5003;33575;52.600;7.318;2023-04-15T14:33:26;8;7;
47810;PMS5003;33575;52.600;7.318;2023-04-15T14:35:57;10;10;
47810;PMS5003;33575;52.600;7.318;2023-04-15T14:38:27;10;8;
47810;PMS5003;33575;52.600;7.318;2023-04-15T14:40:58;6;6;
47810;PMS5003;33575;52.600;7.318;2023-04-15T14:43:29;9;8;
47810;PMS5003;33575;52.600;7.318;2023-04-15T14:45:59;9;6;
47810;PMS5003;33575;52.600;7.318;2023-04-15T14:48:30;9;9;
47810;PMS5003;33575;52.600;7.318;2023-04-15T14:51:00;11;8;
47810;PMS5003;33575;52.600;7.318;2023-04-15T14:53:31;8;8;
47810;PMS5003;33575;52.600;7.318;2023-04-15T14:56:02;10;10;
47810;PMS5003;33575;52.600;7.318;2023-04-15T14:58:32;7;7;
47810;PMS5003;33575;52.600;7.318;2023-04-15T15:01:03;8;8;
47810;PMS5003;33575;52.600;7.318;2023-04-15T15:03:34;9;8;
47810;PMS5003;33575;52.600;7.318;2023-04-15T15:06:04;9;9;
47810;PMS5003;33575;52.600;7.318;2023-04-15T15:08:35;9;8;
47810;PMS5003;33575;52.600;7.318;2023-04-15T15:11:05;9;8;
47810;PMS5003;33575;52.600;7.318;2023-04-15T15:13:36;10;10;
47810;PMS5003;33575;52.600;7.318;2023-04-15T15:16:07;8;7;
47810;PMS5003;33575;52.600;7.318;2023-04-15T15:18:37;12;10;
47810;PMS5003;33575;52.600;7.318;2023-04-15T15:21:08;9;8;
47810;PMS5003;33575;52.600;7.318;2023-04-15T15:23:38;12;11;
47810;PMS5003;33575;52.600;7.318;2023-04-15T15:26:09;11;10;
47810;PMS5003;33575;52.600;7.318;2023-04-15T15:28:40;12;11;
47810;PMS5003;33575;52.600;7.318;2023-04-15T15:31:11;9;9;
47810;PMS5003;33575;52.600;7.318;2023-04-15T15:33:41;12;11;
47810;PMS5003;33575;52.600;7.318;2023-04-15T15:36:12;10;10;
47810;PMS5003;33575;52.600;7.318;2023-04-15T15:38:42;12;11;
47810;PMS5003;33575;52.600;7.318;2023-04-15T15:41:13;12;11;
47810;PMS5003;33575;52.600;7.318;2023-04-15T15:43:44;13;13;
47810;PMS5003;33575;52.600;7.318;2023-04-15T15:46:14;10;9;
47810;PMS5003;33575;52.600;7.318;2023-04-15T15:48:45;13;11;
47810;PMS5003;33575;52.600;7.318;2023-04-15T15:51:16;17;13;
47810;PMS5003;33575;52.600;7.318;2023-04-15T15:53:46;14;11;
47810;PMS5003;33575;52.600;7.318;2023-04-15T15:56:17;12;12;
47810;PMS5003;33575;52.600;7.318;2023-04-15T15:58:48;11;9;
47810;PMS5003;33575;52.600;7.318;2023-04-15T16:01:18;13;12;
47810;PMS5003;33575;52.600;7.318;2023-04-15T16:03:49;13;13;
47810;PMS5003;33575;52.600;7.318;2023-04-15T16:06:20;11;10;
47810;PMS5003;33575;52.600;7.318;2023-04-15T16:08:50;14;14;
47810;PMS5003;33575;52.600;7.318;2023-04-15T16:11:21;13;12;
47810;PMS5003;33575;52.600;7.318;2023-04-15T16:13:51;20;18;
47810;PMS5003;33575;52.600;7.318;2023-04-15T16:16:22;17;17;
47810;PMS5003;33575;52.600;7.318;2023-04-15T16:18:52;20;19;
47810;PMS5003;33575;52.600;7.318;2023-04-15T16:21:23;14;13;
47810;PMS5003;33575;52.600;7.318;2023-04-15T16:23:53;16;16;
47810;PMS5003;33575;52.600;7.318;2023-04-15T16:26:24;17;17;
47810;PMS5003;33575;52.600;7.318;2023-04-15T16:28:54;17;16;
47810;PMS5003;33575;52.600;7.318;2023-04-15T16:31:25;19;18;
47810;PMS5003;33575;52.600;7.318;2023-04-15T16:33:55;15;15;
47810;PMS5003;33575;52.600;7.318;2023-04-15T16:36:25;20;20;
47810;PMS5003;33575;52.600;7.318;2023-04-15T16:38:55;21;21;
47810;PMS5003;33575;52.600;7.318;2023-04-15T16:41:26;23;20;
47810;PMS5003;33575;52.600;7.318;2023-04-15T16:43:56;16;15;
47810;PMS5003;33575;52.600;7.318;2023-04-15T16:46:26;20;19;
47810;PMS5003;33575;52.600;7.318;2023-04-15T16:48:57;19;18;
47810;PMS5003;33575;52.600;7.318;2023-04-15T16:51:28;46;43;
47810;PMS5003;33575;52.600;7.318;2023-04-15T16:53:58;24;22;
47810;PMS5003;33575;52.600;7.318;2023-04-15T16:56:28;20;18;
47810;PMS5003;33575;52.600;7.318;2023-04-15T16:58:59;19;17;
47810;PMS5003;33575;52.600;7.318;2023-04-15T17:01:29;28;25;
47810;PMS5003;33575;52.600;7.318;2023-04-15T17:03:59;21;19;
47810;PMS5003;33575;52.600;7.318;2023-04-15T17:06:29;19;18;
47810;PMS5003;33575;52.600;7.318;2023-04-15T17:09:00;28;28;
47810;PMS5003;33575;52.600;7.318;2023-04-15T17:11:30;27;23;